Time;durP1;ratioP1;P1;durP2;ratioP2;P2;SDS_P1;SDS_P2;PMS_P1;PMS_P2;Temp;Humidity;BMP_temperature;BMP_pressure;BME280_temperature;BME280_humidity;BME280_pressure;Samples;Min_cycle;Max_cycle;Signal;HPM_P1;HPM_P2
2023/03/21 00:00:22;;;;;;;20.03;12.00;;;15.10;48.80;;;;;;5014203;28;20162;-50
2023/03/21 00:02:47;;;;;;;15.18;13.57;;;15.00;48.70;;;;;;5012969;28;20402;-52
2023/03/21 00:05:13;;;;;;;17.10;12.73;;;15.00;48.80;;;;;;5014235;28;20174;-50
2023/03/21 00:07:39;;;;;;;16.40;11.87;;;15.10;48.90;;;;;;5013707;28;20635;-49
2023/03/21 00:10:05;;;;;;;17.42;14.10;;;15.10;48.90;;;;;;5013511;28;20218;-49
2023/03/21 00:12:31;;;;;;;15.95;12.80;;;15.10;48.90;;;;;;5014096;28;20559;-52
2023/03/21 00:15:03;;;;;;;15.40;12.33;;;15.00;48.70;;;;;;5013895;28;20175;-52
2023/03/21 00:17:31;;;;;;;15.13;11.88;;;15.10;48.80;;;;;;5013763;28;20253;-49
2023/03/21 00:19:57;;;;;;;16.00;14.15;;;15.10;48.70;;;;;;5013798;28;20174;-49
2023/03/21 00:22:24;;;;;;;19.92;13.73;;;15.10;48.60;;;;;;5014037;28;20182;-52
2023/03/21 00:24:51;;;;;;;17.30;14.02;;;15.10;48.80;;;;;;5013928;28;20272;-49
2023/03/21 00:27:18;;;;;;;16.58;14.30;;;15.10;48.80;;;;;;5013479;28;20229;-49
2023/03/21 00:29:50;;;;;;;18.92;14.50;;;15.10;48.70;;;;;;5013498;28;20210;-49
2023/03/21 00:32:17;;;;;;;19.40;14.93;;;15.10;48.70;;;;;;5013621;28;20186;-52
2023/03/21 00:34:43;;;;;;;17.45;14.10;;;15.10;48.80;;;;;;5013732;28;20202;-49
2023/03/21 00:37:13;;;;;;;21.02;14.70;;;15.10;48.90;;;;;;5013538;28;20191;-49
2023/03/21 00:39:39;;;;;;;20.70;15.50;;;15.10;49.00;;;;;;5013497;28;20186;-52
2023/03/21 00:42:05;;;;;;;20.37;13.67;;;15.10;48.70;;;;;;5013657;28;20174;-49
2023/03/21 00:44:35;;;;;;;22.37;13.40;;;15.10;48.80;;;;;;5013639;28;20414;-52
2023/03/21 00:47:02;;;;;;;18.67;12.52;;;15.10;48.70;;;;;;5013040;28;20437;-52
2023/03/21 00:49:32;;;;;;;22.45;15.65;;;15.10;48.70;;;;;;5013527;28;20227;-49
2023/03/21 00:51:59;;;;;;;21.00;15.43;;;15.10;48.50;;;;;;5013436;28;20167;-49
2023/03/21 00:54:25;;;;;;;22.67;16.75;;;15.10;48.40;;;;;;5013495;28;20580;-49
2023/03/21 00:56:52;;;;;;;27.63;17.60;;;15.10;48.30;;;;;;5013112;28;20183;-50
2023/03/21 00:59:18;;;;;;;21.63;16.30;;;15.00;48.00;;;;;;5013260;28;20209;-52
2023/03/21 01:01:45;;;;;;;23.23;15.57;;;15.00;48.00;;;;;;5013208;28;20170;-51
2023/03/21 01:04:13;;;;;;;27.90;16.05;;;14.90;48.20;;;;;;5013389;28;20233;-49
2023/03/21 01:06:41;;;;;;;27.40;19.13;;;14.90;48.30;;;;;;5013171;28;20179;-49
2023/03/21 01:09:12;;;;;;;23.63;19.00;;;14.80;48.20;;;;;;5012927;28;20696;-52
2023/03/21 01:11:39;;;;;;;23.75;18.48;;;14.90;48.40;;;;;;5013013;28;20645;-49
2023/03/21 01:14:04;;;;;;;25.38;17.30;;;14.80;48.40;;;;;;5012790;28;20262;-49
2023/03/21 01:16:31;;;;;;;22.43;15.37;;;14.80;48.50;;;;;;5012641;28;20873;-51
2023/03/21 01:18:56;;;;;;;26.80;20.02;;;14.80;48.60;;;;;;5012880;28;20174;-49
2023/03/21 01:21:23;;;;;;;25.87;17.60;;;14.80;48.60;;;;;;5012199;28;20520;-49
2023/03/21 01:23:48;;;;;;;22.95;17.30;;;14.80;48.60;;;;;;5012518;28;20635;-51
2023/03/21 01:26:14;;;;;;;27.13;19.03;;;14.80;48.50;;;;;;5012517;28;20198;-51
2023/03/21 01:28:42;;;;;;;27.83;20.35;;;14.80;48.30;;;;;;5012524;28;20206;-49
2023/03/21 01:31:10;;;;;;;23.80;17.42;;;14.80;48.20;;;;;;5012750;28;20179;-51
2023/03/21 01:33:36;;;;;;;25.10;18.65;;;14.80;48.20;;;;;;5012881;28;20262;-49
2023/03/21 01:36:02;;;;;;;26.67;19.70;;;14.70;48.30;;;;;;5012712;28;20254;-52
2023/03/21 01:38:28;;;;;;;25.85;20.23;;;14.70;48.30;;;;;;5012610;28;20198;-51
2023/03/21 01:40:54;;;;;;;25.77;20.37;;;14.70;48.20;;;;;;5012550;28;20535;-50
2023/03/21 01:43:30;;;;;;;35.33;21.20;;;14.70;48.20;;;;;;5012596;28;20178;-49
2023/03/21 01:46:22;;;;;;;24.13;19.73;;;14.70;48.20;;;;;;5012413;28;20666;-51
2023/03/21 01:48:53;;;;;;;28.25;19.30;;;14.70;48.20;;;;;;5012568;28;20213;-51
2023/03/21 01:51:21;;;;;;;26.55;20.08;;;14.60;48.20;;;;;;5012532;28;20233;-51
2023/03/21 01:53:47;;;;;;;26.38;19.65;;;14.50;48.10;;;;;;5012253;28;20178;-49
2023/03/21 01:56:30;;;;;;;25.67;20.13;;;14.40;48.10;;;;;;5012039;28;20224;-51
2023/03/21 01:59:04;;;;;;;28.00;20.40;;;14.40;48.10;;;;;;5012619;28;20170;-51
2023/03/21 02:01:30;;;;;;;26.23;20.02;;;14.30;48.40;;;;;;5012376;28;20233;-48
2023/03/21 02:04:02;;;;;;;27.05;20.25;;;14.30;48.40;;;;;;5012193;28;20210;-51
2023/03/21 02:06:57;;;;;;;24.55;19.25;;;14.30;48.50;;;;;;5012211;28;20202;-51
2023/03/21 02:09:27;;;;;;;30.23;20.30;;;14.30;48.20;;;;;;5011415;28;20611;-51
2023/03/21 02:11:54;;;;;;;28.27;21.35;;;14.30;48.20;;;;;;5012273;28;20167;-51
2023/03/21 02:14:20;;;;;;;28.23;18.88;;;14.30;48.30;;;;;;5012442;28;20570;-51
2023/03/21 02:16:51;;;;;;;27.70;20.33;;;14.30;48.40;;;;;;5011851;28;20210;-51
2023/03/21 02:19:23;;;;;;;25.58;21.05;;;14.30;48.40;;;;;;5012129;28;20269;-50
2023/03/21 02:22:23;;;;;;;24.70;18.73;;;14.40;48.40;;;;;;5012044;28;20163;-51
2023/03/21 02:25:42;;;;;;;28.38;20.45;;;14.40;48.20;;;;;;5011968;28;20175;-51
2023/03/21 02:28:23;;;;;;;30.42;18.92;;;14.40;48.20;;;;;;4989797;28;20199;-51
2023/03/21 02:31:21;;;;;;;27.05;18.20;;;14.40;48.20;;;;;;5012274;28;20522;-51
2023/03/21 02:34:31;;;;;;;32.35;20.00;;;14.40;48.00;;;;;;5013825;28;20174;-51
2023/03/21 02:37:05;;;;;;;25.80;21.25;;;14.30;47.80;;;;;;5012853;28;20226;-51
2023/03/21 02:39:49;;;;;;;25.73;18.80;;;14.20;47.80;;;;;;5015797;28;20206;-50
2023/03/21 02:42:47;;;;;;;23.55;19.65;;;14.20;47.70;;;;;;5015922;28;20210;-51
2023/03/21 02:45:19;;;;;;;25.45;18.80;;;14.10;47.70;;;;;;5015419;28;20241;-51
2023/03/21 02:47:51;;;;;;;24.85;18.30;;;14.10;47.60;;;;;;5015355;28;20198;-51
2023/03/21 02:50:29;;;;;;;24.85;19.48;;;14.00;47.30;;;;;;5015761;28;20233;-51
2023/03/21 02:52:57;;;;;;;30.55;19.20;;;14.00;47.30;;;;;;5015513;28;20166;-51
2023/03/21 02:55:30;;;;;;;27.35;19.83;;;13.90;47.10;;;;;;5015751;28;20338;-51
2023/03/21 02:57:57;;;;;;;26.88;20.40;;;13.90;47.00;;;;;;5015201;28;20562;-51
2023/03/21 03:00:28;;;;;;;27.85;19.65;;;13.80;46.60;;;;;;5015369;28;20182;-50
2023/03/21 03:02:54;;;;;;;26.92;20.33;;;13.80;46.80;;;;;;5015599;28;20162;-51
2023/03/21 03:05:23;;;;;;;28.98;19.25;;;13.80;46.80;;;;;;5015293;28;20186;-51
2023/03/21 03:08:14;;;;;;;25.27;20.75;;;13.80;46.80;;;;;;5014960;28;20598;-48
2023/03/21 03:11:07;;;;;;;35.15;20.50;;;13.80;46.70;;;;;;5015448;28;20163;-52
2023/03/21 03:13:52;;;;;;;29.70;21.17;;;13.80;46.50;;;;;;5015367;28;20196;-52
2023/03/21 03:16:29;;;;;;;24.92;19.77;;;13.70;46.50;;;;;;5014850;28;20178;-52
2023/03/21 03:18:59;;;;;;;27.27;19.83;;;13.70;46.50;;;;;;5015043;28;20173;-49
2023/03/21 03:21:37;;;;;;;28.40;20.38;;;13.70;46.50;;;;;;5015205;28;20268;-52
2023/03/21 03:24:09;;;;;;;26.63;18.77;;;13.70;46.50;;;;;;5015138;28;20222;-52
2023/03/21 03:26:46;;;;;;;24.83;19.67;;;13.70;46.50;;;;;;5014631;28;20566;-49
2023/03/21 03:29:16;;;;;;;31.10;20.08;;;13.70;46.50;;;;;;5015074;28;20189;-52
2023/03/21 03:31:55;;;;;;;24.50;20.25;;;13.70;46.60;;;;;;5014714;28;20181;-52
2023/03/21 03:34:25;;;;;;;27.00;20.35;;;13.80;46.60;;;;;;5014762;28;20163;-52
2023/03/21 03:36:56;;;;;;;29.13;21.17;;;13.70;46.60;;;;;;5014603;28;20203;-51
2023/03/21 03:39:54;;;;;;;29.23;21.52;;;13.70;46.50;;;;;;5014974;28;20241;-52
2023/03/21 03:42:42;;;;;;;25.63;19.52;;;13.70;46.50;;;;;;4995568;28;20196;-52
2023/03/21 03:45:09;;;;;;;25.30;18.80;;;13.70;46.50;;;;;;5013415;28;20659;-50
2023/03/21 03:47:56;;;;;;;25.73;18.85;;;13.70;46.70;;;;;;5014461;28;20199;-52
2023/03/21 03:50:36;;;;;;;25.95;19.00;;;12.70;46.20;;;;;;5014394;28;20193;-52
2023/03/21 03:53:17;;;;;;;32.22;22.27;;;13.70;46.80;;;;;;5014557;28;20174;-51
2023/03/21 03:55:44;;;;;;;25.88;19.88;;;13.70;46.90;;;;;;5014686;28;20163;-51
2023/03/21 03:58:11;;;;;;;23.83;18.45;;;13.60;46.80;;;;;;5013974;28;20674;-52
2023/03/21 04:00:37;;;;;;;24.40;19.02;;;13.60;46.80;;;;;;5014322;28;20183;-52
2023/03/21 04:03:05;;;;;;;25.02;19.27;;;13.70;46.90;;;;;;5014340;28;20182;-52
2023/03/21 04:05:32;;;;;;;28.42;21.20;;;13.60;46.80;;;;;;5014100;28;20709;-51
2023/03/21 04:07:57;;;;;;;24.15;18.80;;;13.60;46.90;;;;;;5013706;28;20253;-51
2023/03/21 04:10:23;;;;;;;28.43;21.73;;;13.70;47.20;;;;;;5014093;28;20174;-52
2023/03/21 04:12:49;;;;;;;36.90;21.85;;;13.60;47.00;;;;;;5013971;28;20182;-52
2023/03/21 04:15:16;;;;;;;25.15;21.27;;;13.50;47.10;;;;;;5014185;28;20183;-52
2023/03/21 04:17:41;;;;;;;31.15;21.85;;;13.60;47.20;;;;;;5013641;28;20187;-52
2023/03/21 04:20:07;;;;;;;27.53;21.33;;;13.60;47.30;;;;;;5013893;28;20325;-52
2023/03/21 04:22:33;;;;;;;29.80;18.52;;;13.50;47.20;;;;;;5013837;28;20571;-52
2023/03/21 04:25:04;;;;;;;26.30;19.97;;;13.50;47.30;;;;;;5013700;28;20210;-52
2023/03/21 04:27:31;;;;;;;31.73;21.30;;;13.60;47.40;;;;;;5013538;28;20492;-52
2023/03/21 04:29:58;;;;;;;26.65;20.70;;;13.60;47.40;;;;;;5013522;28;20217;-52
2023/03/21 04:32:25;;;;;;;27.02;20.67;;;13.50;47.30;;;;;;5013652;28;20174;-51
2023/03/21 04:34:52;;;;;;;27.27;21.13;;;13.60;47.40;;;;;;5013735;28;20193;-50
2023/03/21 04:37:22;;;;;;;30.73;22.42;;;13.50;47.40;;;;;;5013566;28;20286;-52
2023/03/21 04:39:49;;;;;;;34.75;24.05;;;13.50;47.50;;;;;;5013744;28;20187;-50
2023/03/21 04:42:17;;;;;;;31.48;22.50;;;13.50;47.40;;;;;;5013451;28;20178;-52
2023/03/21 04:44:44;;;;;;;30.35;22.77;;;13.50;47.40;;;;;;5013308;28;20191;-52
2023/03/21 04:47:12;;;;;;;25.90;19.77;;;13.50;47.50;;;;;;5013108;28;20548;-50
2023/03/21 04:49:38;;;;;;;30.45;22.95;;;13.50;47.30;;;;;;5013238;28;20732;-51
2023/03/21 04:52:04;;;;;;;32.57;23.63;;;13.60;47.30;;;;;;5013212;28;20265;-50
2023/03/21 04:54:31;;;;;;;31.17;20.95;;;13.60;47.20;;;;;;5013371;28;20406;-50
2023/03/21 04:56:57;;;;;;;34.42;21.95;;;13.60;47.00;;;;;;5012625;28;20707;-53
2023/03/21 04:59:23;;;;;;;32.30;22.52;;;13.60;47.00;;;;;;5013137;28;20265;-50
2023/03/21 05:01:49;;;;;;;28.00;21.10;;;13.60;47.00;;;;;;5013412;28;20266;-52
2023/03/21 05:04:15;;;;;;;30.80;21.92;;;13.70;47.00;;;;;;5013369;28;20257;-50
2023/03/21 05:06:42;;;;;;;32.53;22.25;;;13.70;47.10;;;;;;5012718;28;20177;-50
2023/03/21 05:09:08;;;;;;;27.05;22.60;;;13.70;46.90;;;;;;5012957;28;20210;-53
2023/03/21 05:11:36;;;;;;;34.30;24.27;;;13.70;47.00;;;;;;5012950;28;20674;-50
2023/03/21 05:14:04;;;;;;;30.52;24.13;;;13.70;47.30;;;;;;5012911;28;20468;-50
2023/03/21 05:16:29;;;;;;;35.17;25.63;;;13.60;47.30;;;;;;5012742;28;20233;-50
2023/03/21 05:18:57;;;;;;;32.13;23.10;;;13.60;47.30;;;;;;5012852;28;20167;-53
2023/03/21 05:21:28;;;;;;;32.85;24.88;;;13.60;47.90;;;;;;5012859;28;20170;-50
2023/03/21 05:23:54;;;;;;;33.60;23.52;;;13.60;47.30;;;;;;5013016;28;20174;-53
2023/03/21 05:26:23;;;;;;;26.05;19.73;;;13.60;47.10;;;;;;5012377;28;20229;-50
2023/03/21 05:28:50;;;;;;;31.17;24.55;;;13.60;46.90;;;;;;5012869;28;20214;-52
2023/03/21 05:31:17;;;;;;;27.65;19.52;;;13.60;46.90;;;;;;5012988;28;20171;-52
2023/03/21 05:33:43;;;;;;;27.75;22.00;;;13.60;46.90;;;;;;5012588;28;20198;-50
2023/03/21 05:36:10;;;;;;;26.15;20.30;;;13.50;46.90;;;;;;5012457;28;20178;-52
2023/03/21 05:38:36;;;;;;;31.67;21.48;;;13.60;46.90;;;;;;5012442;28;20756;-53
2023/03/21 05:41:02;;;;;;;28.90;20.15;;;13.50;46.80;;;;;;5012682;28;20178;-50
2023/03/21 05:43:27;;;;;;;27.87;19.40;;;13.60;46.90;;;;;;5012511;28;20589;-50
2023/03/21 05:45:53;;;;;;;28.60;21.17;;;13.60;46.90;;;;;;5012472;28;20171;-52
2023/03/21 05:48:19;;;;;;;26.08;19.83;;;13.60;46.90;;;;;;5012164;28;20194;-53
2023/03/21 05:50:45;;;;;;;24.40;19.60;;;13.70;46.90;;;;;;5012430;28;20182;-50
2023/03/21 05:53:11;;;;;;;25.80;18.20;;;13.70;46.80;;;;;;5012227;28;20489;-52
2023/03/21 05:55:37;;;;;;;22.55;18.85;;;13.70;46.70;;;;;;5012503;28;20256;-51
2023/03/21 05:58:03;;;;;;;23.33;19.60;;;13.70;46.50;;;;;;5012002;28;20218;-54
2023/03/21 06:00:29;;;;;;;22.88;15.68;;;13.60;46.50;;;;;;5012243;28;20488;-52
2023/03/21 06:02:55;;;;;;;23.10;17.05;;;13.60;46.60;;;;;;5012439;28;20325;-54
2023/03/21 06:05:21;;;;;;;24.23;16.70;;;13.70;47.10;;;;;;5012505;28;20249;-52
2023/03/21 06:07:47;;;;;;;21.80;16.07;;;13.70;47.10;;;;;;5012364;28;20546;-51
2023/03/21 06:10:12;;;;;;;20.80;17.20;;;13.70;46.90;;;;;;5016183;28;20190;-54
2023/03/21 06:12:38;;;;;;;23.60;17.17;;;13.70;46.70;;;;;;5016599;28;21106;-51
2023/03/21 06:15:05;;;;;;;17.27;13.53;;;13.70;46.80;;;;;;5016136;28;20174;-51
2023/03/21 06:17:31;;;;;;;21.20;15.73;;;13.70;46.50;;;;;;5016138;28;20244;-51
2023/03/21 06:19:59;;;;;;;18.10;14.35;;;13.70;46.80;;;;;;5016053;28;20257;-50
2023/03/21 06:22:26;;;;;;;14.65;11.13;;;13.70;47.00;;;;;;5015929;28;20191;-52
2023/03/21 06:24:52;;;;;;;16.90;12.20;;;13.80;46.40;;;;;;5016147;28;20186;-51
2023/03/21 06:27:17;;;;;;;15.90;11.80;;;13.80;46.40;;;;;;5015761;28;20605;-52
2023/03/21 06:29:45;;;;;;;17.07;12.07;;;13.80;46.50;;;;;;5016127;28;20204;-53
2023/03/21 06:32:11;;;;;;;14.50;10.60;;;13.80;46.20;;;;;;5015853;28;20584;-51
2023/03/21 06:34:37;;;;;;;13.75;11.75;;;13.90;46.30;;;;;;5015796;28;20178;-51
2023/03/21 06:37:03;;;;;;;13.13;9.60;;;13.90;45.90;;;;;;5015697;28;20190;-53
2023/03/21 06:39:30;;;;;;;15.27;10.33;;;13.80;45.80;;;;;;5015984;28;20183;-53
2023/03/21 06:41:56;;;;;;;15.65;10.40;;;13.80;46.00;;;;;;5015916;28;20440;-49
2023/03/21 06:44:23;;;;;;;12.95;8.77;;;13.90;46.20;;;;;;5015826;28;20213;-52
2023/03/21 06:46:50;;;;;;;14.90;11.40;;;13.80;45.70;;;;;;5015436;28;20199;-51
2023/03/21 06:49:16;;;;;;;11.93;9.15;;;13.80;45.50;;;;;;5015737;28;20198;-51
2023/03/21 06:51:42;;;;;;;12.07;9.23;;;13.70;45.90;;;;;;5015800;28;20324;-54
2023/03/21 06:54:07;;;;;;;16.00;10.87;;;13.70;46.20;;;;;;5015459;28;20889;-51
2023/03/21 06:56:33;;;;;;;13.00;8.00;;;13.70;46.30;;;;;;5015411;28;20424;-53
2023/03/21 06:58:59;;;;;;;14.23;9.27;;;13.70;46.40;;;;;;5015662;28;20770;-53
2023/03/21 07:01:26;;;;;;;11.20;8.23;;;13.80;46.10;;;;;;5015402;28;20642;-51
2023/03/21 07:03:53;;;;;;;15.23;9.50;;;13.80;46.20;;;;;;5015371;28;20409;-51
2023/03/21 07:06:18;;;;;;;10.68;7.95;;;13.90;45.80;;;;;;5014922;28;20654;-52
2023/03/21 07:08:46;;;;;;;11.13;7.60;;;14.00;45.80;;;;;;5015138;28;20209;-49
2023/03/21 07:11:13;;;;;;;14.52;8.32;;;14.10;46.00;;;;;;5015124;28;20929;-50
2023/03/21 07:13:38;;;;;;;12.90;9.60;;;14.10;45.70;;;;;;5015395;28;20178;-53
2023/03/21 07:16:05;;;;;;;13.80;9.83;;;14.10;45.80;;;;;;5014981;28;20229;-53
2023/03/21 07:18:31;;;;;;;16.02;9.38;;;14.20;45.70;;;;;;5013542;28;20441;-50
2023/03/21 07:20:57;;;;;;;10.50;7.83;;;14.20;45.80;;;;;;5014775;28;20179;-50
2023/03/21 07:23:24;;;;;;;12.30;8.55;;;14.20;46.10;;;;;;5014956;28;20413;-52
2023/03/21 07:25:51;;;;;;;12.23;9.30;;;14.20;45.80;;;;;;5014928;28;20269;-51
2023/03/21 07:28:18;;;;;;;17.77;9.13;;;14.10;45.90;;;;;;5014710;28;20199;-53
2023/03/21 07:30:45;;;;;;;12.32;9.20;;;14.10;46.20;;;;;;5014940;28;20543;-52
2023/03/21 07:33:11;;;;;;;13.05;9.73;;;14.10;45.60;;;;;;5014763;28;20178;-50
2023/03/21 07:35:37;;;;;;;11.82;9.35;;;14.10;46.20;;;;;;5014584;28;20547;-52
2023/03/21 07:38:04;;;;;;;11.60;8.23;;;14.10;46.50;;;;;;5014360;28;20187;-51
2023/03/21 07:40:30;;;;;;;12.73;9.25;;;14.20;46.60;;;;;;5014640;28;20250;-51
2023/03/21 07:42:56;;;;;;;13.23;8.77;;;14.20;46.40;;;;;;5014604;28;20178;-53
2023/03/21 07:45:24;;;;;;;15.35;10.48;;;14.30;46.70;;;;;;5014460;28;20543;-52
2023/03/21 07:47:50;;;;;;;13.07;8.82;;;14.30;46.90;;;;;;5014122;28;20205;-51
2023/03/21 07:50:16;;;;;;;13.10;10.00;;;14.40;46.80;;;;;;5014601;28;20559;-54
2023/03/21 07:52:43;;;;;;;11.52;8.80;;;14.50;46.90;;;;;;5014549;28;20193;-52
2023/03/21 07:55:09;;;;;;;14.55;8.93;;;14.60;46.90;;;;;;5014253;28;20178;-53
2023/03/21 07:57:35;;;;;;;14.27;10.63;;;14.70;46.90;;;;;;5014112;28;20190;-52
2023/03/21 08:00:03;;;;;;;13.95;10.35;;;14.70;46.70;;;;;;5014364;28;20655;-53
2023/03/21 08:02:29;;;;;;;12.02;9.13;;;14.80;45.80;;;;;;5014099;28;20187;-52
2023/03/21 08:04:55;;;;;;;16.37;9.30;;;14.80;45.60;;;;;;5014114;28;20254;-51
2023/03/21 08:07:20;;;;;;;12.45;9.15;;;14.80;45.20;;;;;;5012606;28;20195;-51
2023/03/21 08:09:46;;;;;;;14.43;9.70;;;14.80;44.80;;;;;;5013962;28;20225;-51
2023/03/21 08:12:12;;;;;;;11.93;9.70;;;14.80;45.00;;;;;;5014066;28;20167;-51
2023/03/21 08:14:38;;;;;;;11.37;9.03;;;14.90;45.90;;;;;;5013985;28;20412;-50
2023/03/21 08:17:04;;;;;;;13.03;8.37;;;14.90;45.20;;;;;;5013550;28;20441;-53
2023/03/21 08:19:31;;;;;;;11.73;8.70;;;15.00;45.60;;;;;;5013988;28;20425;-50
2023/03/21 08:22:00;;;;;;;13.02;9.77;;;15.00;45.00;;;;;;5012592;28;20261;-54
2023/03/21 08:24:27;;;;;;;14.43;8.32;;;15.00;45.00;;;;;;5013778;28;20602;-51
2023/03/21 08:26:53;;;;;;;11.80;7.50;;;15.00;44.40;;;;;;5013392;28;20225;-51
2023/03/21 08:29:20;;;;;;;13.85;8.75;;;15.00;44.40;;;;;;5013600;28;20202;-53
2023/03/21 08:31:46;;;;;;;12.00;9.20;;;15.10;44.40;;;;;;5013107;28;20193;-53
2023/03/21 08:34:12;;;;;;;12.45;9.40;;;15.10;44.50;;;;;;5013634;28;20213;-50
2023/03/21 08:36:38;;;;;;;11.13;8.25;;;15.20;44.20;;;;;;5013440;28;20587;-53
2023/03/21 08:39:05;;;;;;;12.50;9.07;;;15.20;43.90;;;;;;5013656;28;20262;-50
2023/03/21 08:41:35;;;;;;;16.30;8.95;;;15.20;43.90;;;;;;5013475;28;20462;-53
2023/03/21 08:44:02;;;;;;;15.77;9.85;;;15.20;44.00;;;;;;5013372;28;20189;-53
2023/03/21 08:46:32;;;;;;;9.32;7.15;;;15.30;44.30;;;;;;5013133;28;20186;-50
2023/03/21 08:48:57;;;;;;;20.38;9.23;;;15.30;44.20;;;;;;5013628;28;20198;-50
2023/03/21 08:51:23;;;;;;;18.23;9.07;;;15.40;44.10;;;;;;5013465;28;20178;-54
2023/03/21 08:53:52;;;;;;;10.83;7.27;;;15.40;43.60;;;;;;5013998;28;20170;-51
2023/03/21 08:56:18;;;;;;;9.50;7.47;;;15.50;43.80;;;;;;5013320;28;20410;-53
2023/03/21 08:58:44;;;;;;;10.00;7.37;;;15.50;43.00;;;;;;5011924;28;20205;-53
2023/03/21 09:01:14;;;;;;;9.52;7.85;;;15.40;43.20;;;;;;5013282;28;20726;-50
2023/03/21 09:03:40;;;;;;;12.20;7.13;;;15.50;43.60;;;;;;5013296;28;20262;-53
2023/03/21 09:06:09;;;;;;;12.18;7.05;;;15.50;43.60;;;;;;5013372;28;20178;-52
2023/03/21 09:08:36;;;;;;;11.85;7.18;;;15.50;43.30;;;;;;5012942;28;20205;-52
2023/03/21 09:11:02;;;;;;;15.32;8.18;;;15.60;43.30;;;;;;5013385;28;20182;-53
2023/03/21 09:13:28;;;;;;;9.80;7.87;;;15.70;43.80;;;;;;5013320;28;20179;-50
2023/03/21 09:15:56;;;;;;;11.30;7.30;;;15.70;42.60;;;;;;5012877;28;20689;-50
2023/03/21 09:18:37;;;;;;;10.05;6.85;;;15.70;42.90;;;;;;5012844;28;20264;-53
2023/03/21 09:21:11;;;;;;;9.25;7.78;;;15.60;42.30;;;;;;5013201;28;20167;-50
2023/03/21 09:23:38;;;;;;;11.18;6.97;;;15.70;42.80;;;;;;5013120;28;20579;-52
2023/03/21 09:26:05;;;;;;;9.88;6.43;;;15.70;43.00;;;;;;5012573;28;20198;-53
2023/03/21 09:28:31;;;;;;;9.07;7.50;;;15.70;42.80;;;;;;5012620;28;20700;-51
2023/03/21 09:30:59;;;;;;;16.70;13.18;;;15.80;42.40;;;;;;5013019;28;20178;-50
2023/03/21 09:33:26;;;;;;;7.93;6.88;;;15.90;43.10;;;;;;5012704;28;20236;-50
2023/03/21 09:35:57;;;;;;;8.43;6.47;;;16.00;42.90;;;;;;5012900;28;20212;-52
2023/03/21 09:38:29;;;;;;;8.38;6.68;;;16.10;42.30;;;;;;5011514;28;20201;-51
2023/03/21 09:41:20;;;;;;;12.20;7.22;;;16.10;41.80;;;;;;5012659;28;20213;-50
2023/03/21 09:44:10;;;;;;;6.57;5.85;;;16.10;41.70;;;;;;5011834;28;20213;-51
2023/03/21 09:46:46;;;;;;;10.13;7.50;;;16.10;41.50;;;;;;5012287;28;20546;-51
2023/03/21 09:49:24;;;;;;;11.90;7.57;;;16.10;42.20;;;;;;5012768;28;20286;-50
2023/03/21 09:51:54;;;;;;;9.88;7.15;;;16.20;42.50;;;;;;5012649;28;20173;-51
2023/03/21 09:54:32;;;;;;;8.10;6.50;;;16.20;41.80;;;;;;5012339;28;20170;-52
2023/03/21 09:57:08;;;;;;;12.52;8.40;;;16.20;41.70;;;;;;5012440;28;20202;-53
2023/03/21 09:59:39;;;;;;;9.73;7.68;;;16.10;41.80;;;;;;5012283;28;20649;-50
2023/03/21 10:02:40;;;;;;;9.88;7.30;;;16.20;41.20;;;;;;5011006;28;20574;-51
2023/03/21 10:05:29;;;;;;;13.90;8.55;;;16.20;42.30;;;;;;5012308;28;20174;-51
2023/03/21 10:08:07;;;;;;;12.00;7.43;;;16.30;42.50;;;;;;5011089;28;20225;-52
2023/03/21 10:10:52;;;;;;;8.57;6.97;;;16.50;43.20;;;;;;5012117;28;20229;-50
2023/03/21 10:13:32;;;;;;;9.57;7.25;;;16.50;40.40;;;;;;5012298;28;20174;-52
2023/03/21 10:16:05;;;;;;;8.98;7.10;;;16.70;42.10;;;;;;5012042;28;20174;-51
2023/03/21 10:18:32;;;;;;;10.13;8.25;;;16.80;41.60;;;;;;5012040;28;20193;-51
2023/03/21 10:20:58;;;;;;;7.30;6.18;;;16.80;41.30;;;;;;5012308;28;20531;-52
2023/03/21 10:23:28;;;;;;;12.10;7.68;;;17.00;41.70;;;;;;5012439;28;20175;-53
2023/03/21 10:25:58;;;;;;;11.75;8.25;;;17.20;41.00;;;;;;5012019;28;20197;-50
2023/03/21 10:28:37;;;;;;;10.55;8.10;;;17.20;40.00;;;;;;5011947;28;20214;-52
2023/03/21 10:31:06;;;;;;;8.73;6.68;;;17.30;40.80;;;;;;5012055;28;20170;-53
2023/03/21 10:33:38;;;;;;;7.40;6.28;;;17.40;40.40;;;;;;5012356;28;20179;-51
2023/03/21 10:36:16;;;;;;;9.88;5.85;;;17.50;39.70;;;;;;5012078;28;20203;-52
2023/03/21 10:39:28;;;;;;;6.78;5.75;;;17.60;39.90;;;;;;5012110;28;20213;-51
2023/03/21 10:41:54;;;;;;;7.20;6.45;;;17.70;40.10;;;;;;5007845;28;20185;-52
2023/03/21 10:44:21;;;;;;;8.18;6.85;;;17.80;40.00;;;;;;5011902;28;20179;-53
2023/03/21 10:46:52;;;;;;;13.32;6.20;;;17.90;39.60;;;;;;5012075;28;20206;-50
2023/03/21 10:49:20;;;;;;;9.30;6.10;;;18.10;39.40;;;;;;5011762;28;20201;-52
2023/03/21 10:51:50;;;;;;;8.38;5.70;;;18.10;38.60;;;;;;5012142;28;20187;-54
2023/03/21 10:54:20;;;;;;;9.10;6.05;;;18.10;38.60;;;;;;5013041;28;20159;-51
2023/03/21 10:57:07;;;;;;;10.60;5.35;;;18.00;38.30;;;;;;5015335;28;20240;-50
2023/03/21 10:59:43;;;;;;;7.07;5.88;;;18.10;38.00;;;;;;5015504;28;20171;-51
2023/03/21 11:02:46;;;;;;;9.15;7.05;;;18.10;38.10;;;;;;5015724;28;20186;-50
2023/03/21 11:05:26;;;;;;;9.52;5.93;;;18.20;38.60;;;;;;4993562;28;20205;-53
2023/03/21 11:08:05;;;;;;;7.22;6.15;;;18.20;38.50;;;;;;4993129;28;20293;-51
2023/03/21 11:10:35;;;;;;;7.00;5.38;;;18.20;37.40;;;;;;4993508;28;20195;-53
2023/03/21 11:13:15;;;;;;;6.55;5.82;;;18.20;38.10;;;;;;4993433;28;20571;-51
2023/03/21 11:15:49;;;;;;;8.25;5.72;;;18.20;38.00;;;;;;4993315;28;20171;-50
2023/03/21 11:18:24;;;;;;;7.05;5.70;;;18.30;38.70;;;;;;4993068;28;20198;-51
2023/03/21 11:21:01;;;;;;;9.40;6.20;;;18.40;38.60;;;;;;4993462;28;20182;-54
2023/03/21 11:23:32;;;;;;;7.03;5.85;;;18.50;39.10;;;;;;4993257;28;20179;-49
2023/03/21 11:26:00;;;;;;;7.55;5.78;;;18.50;37.70;;;;;;4993336;28;20221;-51
2023/03/21 11:28:35;;;;;;;8.50;5.80;;;18.50;37.70;;;;;;4992870;28;20199;-54
2023/03/21 11:31:02;;;;;;;7.50;5.47;;;18.60;37.40;;;;;;4992989;28;20171;-54
2023/03/21 11:33:35;;;;;;;5.72;5.10;;;18.70;37.00;;;;;;4992821;28;20225;-49
2023/03/21 11:36:23;;;;;;;8.30;5.88;;;18.80;36.70;;;;;;4993182;28;20163;-51
2023/03/21 11:38:51;;;;;;;5.75;5.18;;;18.80;36.80;;;;;;5000931;28;20213;-52
2023/03/21 11:41:31;;;;;;;7.47;4.78;;;18.90;38.10;;;;;;5014880;28;20191;-51
2023/03/21 11:43:59;;;;;;;6.50;5.18;;;18.90;36.00;;;;;;5014607;28;20682;-53
2023/03/21 11:46:27;;;;;;;5.53;5.00;;;18.90;36.60;;;;;;5014751;28;20228;-53
2023/03/21 11:48:55;;;;;;;6.68;4.80;;;18.90;37.00;;;;;;5014845;28;20236;-51
2023/03/21 11:51:49;;;;;;;5.85;4.80;;;18.90;36.70;;;;;;5014630;28;20179;-52
2023/03/21 11:54:41;;;;;;;6.50;4.93;;;19.10;37.40;;;;;;5014440;28;20202;-50
2023/03/21 11:57:42;;;;;;;5.40;4.70;;;19.20;38.10;;;;;;5011045;28;20736;-52
2023/03/21 12:00:21;;;;;;;4.88;4.43;;;19.40;37.20;;;;;;5014247;28;20260;-53
2023/03/21 12:03:08;;;;;;;6.38;4.70;;;19.40;36.40;;;;;;5014518;28;20223;-53
2023/03/21 12:05:38;;;;;;;6.07;5.20;;;19.40;36.40;;;;;;5013715;28;20174;-53
2023/03/21 12:08:24;;;;;;;7.53;5.30;;;19.40;36.30;;;;;;5013949;28;20206;-54
2023/03/21 12:11:18;;;;;;;6.88;4.00;;;19.50;36.70;;;;;;5014139;28;20174;-52
2023/03/21 12:14:08;;;;;;;7.95;5.07;;;19.50;35.70;;;;;;5005999;28;20229;-53
2023/03/21 12:16:43;;;;;;;12.13;6.35;;;19.40;36.50;;;;;;5013866;28;20178;-53
2023/03/21 12:19:25;;;;;;;5.05;4.03;;;19.40;36.80;;;;;;5014220;28;20194;-50
2023/03/21 12:22:05;;;;;;;5.70;4.70;;;19.40;36.30;;;;;;5013886;28;20163;-52
2023/03/21 12:24:54;;;;;;;5.00;4.35;;;19.40;36.40;;;;;;5013904;28;20261;-52
2023/03/21 12:27:37;;;;;;;6.30;4.30;;;19.20;35.90;;;;;;5013880;28;20198;-51
2023/03/21 12:30:18;;;;;;;5.43;4.50;;;19.10;36.30;;;;;;5013638;28;20206;-50
2023/03/21 12:32:56;;;;;;;6.43;5.72;;;19.00;36.50;;;;;;5013743;28;20547;-53
2023/03/21 12:35:31;;;;;;;7.00;5.20;;;19.00;37.10;;;;;;5013522;28;20257;-50
2023/03/21 12:38:24;;;;;;;6.05;5.07;;;19.10;37.00;;;;;;5013446;28;20193;-52
2023/03/21 12:41:40;;;;;;;5.28;4.72;;;19.10;36.90;;;;;;5013596;28;20666;-51
2023/03/21 12:44:18;;;;;;;10.48;4.72;;;19.20;37.40;;;;;;4991545;28;20577;-51
2023/03/21 12:46:58;;;;;;;5.13;4.50;;;19.30;38.00;;;;;;4991257;28;20214;-53
2023/03/21 12:49:33;;;;;;;4.35;3.95;;;19.50;38.40;;;;;;4991421;28;20226;-51
2023/03/21 12:52:10;;;;;;;7.25;4.82;;;19.60;38.10;;;;;;4991432;28;20201;-51
2023/03/21 12:54:55;;;;;;;5.82;5.07;;;19.70;36.70;;;;;;4991426;28;20166;-53